sensor_id;sensor_type;location;lat;lon;timestamp;temperature;humidity
39401;DHT22;54391;50.000;7.360;2023-02-18T00:01:08;9.00;92.60
39401;DHT22;54391;50.000;7.360;2023-02-18T00:03:35;8.90;93.40
39401;DHT22;54391;50.000;7.360;2023-02-18T00:06:08;8.90;94.10
39401;DHT22;54391;50.000;7.360;2023-02-18T00:08:37;8.90;95.00
39401;DHT22;54391;50.000;7.360;2023-02-18T00:11:04;8.80;96.90
39401;DHT22;54391;50.000;7.360;2023-02-18T00:13:31;8.80;97.70
39401;DHT22;54391;50.000;7.360;2023-02-18T00:15:59;8.70;99.60
39401;DHT22;54391;50.000;7.360;2023-02-18T00:18:29;8.70;99.80
39401;DHT22;54391;50.000;7.360;2023-02-18T00:20:56;8.60;99.90
39401;DHT22;54391;50.000;7.360;2023-02-18T00:23:23;8.60;99.90
39401;DHT22;54391;50.000;7.360;2023-02-18T00:25:58;8.70;99.90
39401;DHT22;54391;50.000;7.360;2023-02-18T00:28:27;8.60;99.90
39401;DHT22;54391;50.000;7.360;2023-02-18T00:30:54;8.60;99.90
39401;DHT22;54391;50.000;7.360;2023-02-18T00:33:22;8.60;99.90
39401;DHT22;54391;50.000;7.360;2023-02-18T00:35:51;8.60;99.90
39401;DHT22;54391;50.000;7.360;2023-02-18T00:38:18;8.60;99.90
39401;DHT22;54391;50.000;7.360;2023-02-18T00:40:46;8.60;99.90
39401;DHT22;54391;50.000;7.360;2023-02-18T00:43:15;8.60;99.90
39401;DHT22;54391;50.000;7.360;2023-02-18T00:45:42;8.60;99.90
39401;DHT22;54391;50.000;7.360;2023-02-18T00:48:09;8.60;99.90
39401;DHT22;54391;50.000;7.360;2023-02-18T00:50:36;8.50;99.90
39401;DHT22;54391;50.000;7.360;2023-02-18T00:53:06;8.50;99.90
39401;DHT22;54391;50.000;7.360;2023-02-18T00:55:37;8.50;99.90
39401;DHT22;54391;50.000;7.360;2023-02-18T00:58:04;8.50;99.90
39401;DHT22;54391;50.000;7.360;2023-02-18T01:00:33;8.50;99.90
39401;DHT22;54391;50.000;7.360;2023-02-18T01:03:00;8.40;99.90
39401;DHT22;54391;50.000;7.360;2023-02-18T01:05:27;8.50;99.90
39401;DHT22;54391;50.000;7.360;2023-02-18T01:07:54;8.50;99.90
39401;DHT22;54391;50.000;7.360;2023-02-18T01:10:21;8.50;99.90
39401;DHT22;54391;50.000;7.360;2023-02-18T01:12:48;8.40;99.90
39401;DHT22;54391;50.000;7.360;2023-02-18T01:15:15;8.50;99.90
39401;DHT22;54391;50.000;7.360;2023-02-18T01:17:44;8.50;99.90
39401;DHT22;54391;50.000;7.360;2023-02-18T01:20:12;8.50;99.90
39401;DHT22;54391;50.000;7.360;2023-02-18T01:22:39;8.40;99.90
39401;DHT22;54391;50.000;7.360;2023-02-18T01:25:07;8.40;99.90
39401;DHT22;54391;50.000;7.360;2023-02-18T01:27:34;8.40;99.90
39401;DHT22;54391;50.000;7.360;2023-02-18T01:30:01;8.50;99.90
39401;DHT22;54391;50.000;7.360;2023-02-18T01:32:28;8.40;99.90
39401;DHT22;54391;50.000;7.360;2023-02-18T01:34:56;8.40;99.90
39401;DHT22;54391;50.000;7.360;2023-02-18T01:37:27;8.30;99.90
39401;DHT22;54391;50.000;7.360;2023-02-18T01:39:54;8.40;99.90
39401;DHT22;54391;50.000;7.360;2023-02-18T01:42:25;8.30;99.90
39401;DHT22;54391;50.000;7.360;2023-02-18T01:47:37;8.30;99.90
39401;DHT22;54391;50.000;7.360;2023-02-18T01:50:06;8.30;99.90
39401;DHT22;54391;50.000;7.360;2023-02-18T01:52:34;8.30;99.90
39401;DHT22;54391;50.000;7.360;2023-02-18T01:55:01;8.30;99.90
39401;DHT22;54391;50.000;7.360;2023-02-18T01:57:29;8.30;99.90
39401;DHT22;54391;50.000;7.360;2023-02-18T01:59:57;8.30;99.90
39401;DHT22;54391;50.000;7.360;2023-02-18T02:02:29;8.30;99.90
39401;DHT22;54391;50.000;7.360;2023-02-18T02:04:57;8.30;99.90
39401;DHT22;54391;50.000;7.360;2023-02-18T02:07:26;8.30;99.90
39401;DHT22;54391;50.000;7.360;2023-02-18T02:09:54;8.30;99.90
39401;DHT22;54391;50.000;7.360;2023-02-18T02:12:26;8.30;99.90
39401;DHT22;54391;50.000;7.360;2023-02-18T02:15:05;8.30;99.90
39401;DHT22;54391;50.000;7.360;2023-02-18T02:17:36;8.30;99.90
39401;DHT22;54391;50.000;7.360;2023-02-18T02:23:04;8.30;99.90
39401;DHT22;54391;50.000;7.360;2023-02-18T02:25:41;8.20;99.90
39401;DHT22;54391;50.000;7.360;2023-02-18T02:31:11;8.20;99.90
39401;DHT22;54391;50.000;7.360;2023-02-18T02:33:50;8.20;99.90
39401;DHT22;54391;50.000;7.360;2023-02-18T02:36:21;8.20;99.90
39401;DHT22;54391;50.000;7.360;2023-02-18T02:38:53;8.20;99.90
39401;DHT22;54391;50.000;7.360;2023-02-18T02:41:26;8.20;99.90
39401;DHT22;54391;50.000;7.360;2023-02-18T02:44:01;8.20;99.90
39401;DHT22;54391;50.000;7.360;2023-02-18T02:46:34;8.20;99.90
39401;DHT22;54391;50.000;7.360;2023-02-18T02:49:06;8.20;99.90
39401;DHT22;54391;50.000;7.360;2023-02-18T02:51:36;8.20;99.90
39401;DHT22;54391;50.000;7.360;2023-02-18T02:54:13;8.10;99.90
39401;DHT22;54391;50.000;7.360;2023-02-18T02:56:40;8.20;99.90
39401;DHT22;54391;50.000;7.360;2023-02-18T02:59:10;8.20;99.90
39401;DHT22;54391;50.000;7.360;2023-02-18T03:01:41;8.10;99.90
39401;DHT22;54391;50.000;7.360;2023-02-18T03:04:22;8.20;99.90
39401;DHT22;54391;50.000;7.360;2023-02-18T03:09:41;8.20;99.90
39401;DHT22;54391;50.000;7.360;2023-02-18T03:12:10;8.20;99.90
39401;DHT22;54391;50.000;7.360;2023-02-18T03:14:42;8.20;99.90
39401;DHT22;54391;50.000;7.360;2023-02-18T03:17:11;8.10;99.90
39401;DHT22;54391;50.000;7.360;2023-02-18T03:19:42;8.20;99.90
39401;DHT22;54391;50.000;7.360;2023-02-18T03:22:15;8.10;99.90
39401;DHT22;54391;50.000;7.360;2023-02-18T03:24:46;8.10;99.90
39401;DHT22;54391;50.000;7.360;2023-02-18T03:27:15;8.10;99.90
39401;DHT22;54391;50.000;7.360;2023-02-18T03:29:45;8.20;99.90
39401;DHT22;54391;50.000;7.360;2023-02-18T03:32:15;8.20;99.90
39401;DHT22;54391;50.000;7.360;2023-02-18T03:34:43;8.20;99.90
39401;DHT22;54391;50.000;7.360;2023-02-18T03:37:12;8.20;99.90
39401;DHT22;54391;50.000;7.360;2023-02-18T03:39:41;8.20;99.90
39401;DHT22;54391;50.000;7.360;2023-02-18T03:42:11;8.20;99.90
39401;DHT22;54391;50.000;7.360;2023-02-18T03:44:38;8.20;99.90
39401;DHT22;54391;50.000;7.360;2023-02-18T03:47:05;8.20;99.90
39401;DHT22;54391;50.000;7.360;2023-02-18T03:49:32;8.20;99.90
39401;DHT22;54391;50.000;7.360;2023-02-18T03:51:59;8.20;99.90
39401;DHT22;54391;50.000;7.360;2023-02-18T03:54:27;8.10;99.90
39401;DHT22;54391;50.000;7.360;2023-02-18T03:56:54;8.10;99.90
39401;DHT22;54391;50.000;7.360;2023-02-18T03:59:23;8.10;99.90
39401;DHT22;54391;50.000;7.360;2023-02-18T04:01:50;8.10;99.90
39401;DHT22;54391;50.000;7.360;2023-02-18T04:04:17;8.10;99.90
39401;DHT22;54391;50.000;7.360;2023-02-18T04:06:44;8.10;99.90
39401;DHT22;54391;50.000;7.360;2023-02-18T04:09:11;8.10;99.90
39401;DHT22;54391;50.000;7.360;2023-02-18T04:11:38;8.00;99.90
39401;DHT22;54391;50.000;7.360;2023-02-18T04:14:06;8.00;99.90
39401;DHT22;54391;50.000;7.360;2023-02-18T04:16:34;8.00;99.90
39401;DHT22;54391;50.000;7.360;2023-02-18T04:19:02;8.00;99.90
39401;DHT22;54391;50.000;7.360;2023-02-18T04:21:29;8.00;99.90
39401;DHT22;54391;50.000;7.360;2023-02-18T04:23:56;8.00;99.90
39401;DHT22;54391;50.000;7.360;2023-02-18T04:26:23;8.00;99.90
39401;DHT22;54391;50.000;7.360;2023-02-18T04:28:50;7.90;99.90
39401;DHT22;54391;50.000;7.360;2023-02-18T04:31:17;8.00;99.90
39401;DHT22;54391;50.000;7.360;2023-02-18T04:33:45;7.90;99.90
39401;DHT22;54391;50.000;7.360;2023-02-18T04:36:12;7.90;99.90
39401;DHT22;54391;50.000;7.360;2023-02-18T04:38:39;7.90;99.90
39401;DHT22;54391;50.000;7.360;2023-02-18T04:41:07;7.90;99.90
39401;DHT22;54391;50.000;7.360;2023-02-18T04:43:34;7.90;99.90
39401;DHT22;54391;50.000;7.360;2023-02-18T04:46:01;7.90;99.90
39401;DHT22;54391;50.000;7.360;2023-02-18T04:48:28;7.90;99.90
39401;DHT22;54391;50.000;7.360;2023-02-18T04:50:57;7.90;99.90
39401;DHT22;54391;50.000;7.360;2023-02-18T04:53:24;7.90;99.90
39401;DHT22;54391;50.000;7.360;2023-02-18T04:55:51;7.90;99.90
39401;DHT22;54391;50.000;7.360;2023-02-18T04:58:19;7.90;99.90
39401;DHT22;54391;50.000;7.360;2023-02-18T05:00:46;7.90;99.90
39401;DHT22;54391;50.000;7.360;2023-02-18T05:03:13;7.90;99.90
39401;DHT22;54391;50.000;7.360;2023-02-18T05:05:40;7.90;99.90
39401;DHT22;54391;50.000;7.360;2023-02-18T05:08:09;7.90;99.90
39401;DHT22;54391;50.000;7.360;2023-02-18T05:10:36;7.80;99.90
39401;DHT22;54391;50.000;7.360;2023-02-18T05:13:03;7.80;99.90
39401;DHT22;54391;50.000;7.360;2023-02-18T05:15:30;7.80;99.90
39401;DHT22;54391;50.000;7.360;2023-02-18T05:17:57;7.80;99.90
39401;DHT22;54391;50.000;7.360;2023-02-18T05:20:24;7.70;99.90
39401;DHT22;54391;50.000;7.360;2023-02-18T05:22:51;7.70;99.90
39401;DHT22;54391;50.000;7.360;2023-02-18T05:25:19;7.70;99.90
39401;DHT22;54391;50.000;7.360;2023-02-18T05:27:46;7.60;99.90
39401;DHT22;54391;50.000;7.360;2023-02-18T05:30:13;7.70;99.90
39401;DHT22;54391;50.000;7.360;2023-02-18T05:32:40;7.60;99.90
39401;DHT22;54391;50.000;7.360;2023-02-18T05:35:07;7.70;99.90
39401;DHT22;54391;50.000;7.360;2023-02-18T05:37:34;7.60;99.90
39401;DHT22;54391;50.000;7.360;2023-02-18T05:40:02;7.60;99.90
39401;DHT22;54391;50.000;7.360;2023-02-18T05:42:30;7.60;99.50
39401;DHT22;54391;50.000;7.360;2023-02-18T05:44:57;7.60;99.90
39401;DHT22;54391;50.000;7.360;2023-02-18T05:47:23;7.60;98.90
39401;DHT22;54391;50.000;7.360;2023-02-18T05:49:50;7.60;98.30
39401;DHT22;54391;50.000;7.360;2023-02-18T05:52:17;7.60;97.20
39401;DHT22;54391;50.000;7.360;2023-02-18T05:54:46;7.60;97.00
39401;DHT22;54391;50.000;7.360;2023-02-18T05:57:13;7.60;96.70
39401;DHT22;54391;50.000;7.360;2023-02-18T05:59:42;7.50;98.30
39401;DHT22;54391;50.000;7.360;2023-02-18T06:02:08;7.50;97.70
39401;DHT22;54391;50.000;7.360;2023-02-18T06:04:36;7.50;97.50
39401;DHT22;54391;50.000;7.360;2023-02-18T06:07:03;7.50;96.90
39401;DHT22;54391;50.000;7.360;2023-02-18T06:09:30;7.50;97.30
39401;DHT22;54391;50.000;7.360;2023-02-18T06:11:57;7.50;97.00
39401;DHT22;54391;50.000;7.360;2023-02-18T06:14:24;7.50;97.70
39401;DHT22;54391;50.000;7.360;2023-02-18T06:16:53;7.40;97.00
39401;DHT22;54391;50.000;7.360;2023-02-18T06:19:20;7.40;97.60
39401;DHT22;54391;50.000;7.360;2023-02-18T06:21:47;7.30;96.90
39401;DHT22;54391;50.000;7.360;2023-02-18T06:24:14;7.40;96.70
39401;DHT22;54391;50.000;7.360;2023-02-18T06:26:41;7.30;96.80
39401;DHT22;54391;50.000;7.360;2023-02-18T06:29:08;7.30;96.40
39401;DHT22;54391;50.000;7.360;2023-02-18T06:31:35;7.30;94.20
39401;DHT22;54391;50.000;7.360;2023-02-18T06:34:03;7.30;95.30
39401;DHT22;54391;50.000;7.360;2023-02-18T06:36:30;7.20;92.80
39401;DHT22;54391;50.000;7.360;2023-02-18T06:38:57;7.20;93.30
39401;DHT22;54391;50.000;7.360;2023-02-18T06:41:24;7.20;93.30
39401;DHT22;54391;50.000;7.360;2023-02-18T06:43:51;7.20;92.90
39401;DHT22;54391;50.000;7.360;2023-02-18T06:46:18;7.20;93.10
39401;DHT22;54391;50.000;7.360;2023-02-18T06:48:45;7.20;93.10
39401;DHT22;54391;50.000;7.360;2023-02-18T06:51:13;7.20;88.30
39401;DHT22;54391;50.000;7.360;2023-02-18T06:53:41;7.20;88.80
39401;DHT22;54391;50.000;7.360;2023-02-18T06:56:09;7.20;89.20
39401;DHT22;54391;50.000;7.360;2023-02-18T06:58:36;7.20;86.20
39401;DHT22;54391;50.000;7.360;2023-02-18T07:01:03;7.20;80.50
39401;DHT22;54391;50.000;7.360;2023-02-18T07:03:30;7.20;79.80
39401;DHT22;54391;50.000;7.360;2023-02-18T07:05:57;7.20;80.30
39401;DHT22;54391;50.000;7.360;2023-02-18T07:08:26;7.20;77.40
39401;DHT22;54391;50.000;7.360;2023-02-18T07:10:55;7.20;67.50
39401;DHT22;54391;50.000;7.360;2023-02-18T07:13:22;7.20;68.60
39401;DHT22;54391;50.000;7.360;2023-02-18T07:15:49;7.20;62.90
39401;DHT22;54391;50.000;7.360;2023-02-18T07:18:16;7.30;62.20
39401;DHT22;54391;50.000;7.360;2023-02-18T07:20:43;7.30;61.60
39401;DHT22;54391;50.000;7.360;2023-02-18T07:23:10;7.30;62.30
39401;DHT22;54391;50.000;7.360;2023-02-18T07:25:38;7.30;60.80
39401;DHT22;54391;50.000;7.360;2023-02-18T07:28:05;7.40;58.40
39401;DHT22;54391;50.000;7.360;2023-02-18T07:30:32;7.40;59.80
39401;DHT22;54391;50.000;7.360;2023-02-18T07:32:59;7.30;58.60
39401;DHT22;54391;50.000;7.360;2023-02-18T07:35:28;7.40;57.00
39401;DHT22;54391;50.000;7.360;2023-02-18T07:37:55;7.40;58.20
39401;DHT22;54391;50.000;7.360;2023-02-18T07:40:23;7.40;56.50
39401;DHT22;54391;50.000;7.360;2023-02-18T07:42:51;7.50;55.50
39401;DHT22;54391;50.000;7.360;2023-02-18T07:45:18;7.50;55.70
39401;DHT22;54391;50.000;7.360;2023-02-18T07:47:45;7.50;55.30
39401;DHT22;54391;50.000;7.360;2023-02-18T07:50:12;7.50;53.90
39401;DHT22;54391;50.000;7.360;2023-02-18T07:52:39;7.50;54.40
39401;DHT22;54391;50.000;7.360;2023-02-18T07:55:06;7.50;55.20
39401;DHT22;54391;50.000;7.360;2023-02-18T07:57:33;7.60;55.10
39401;DHT22;54391;50.000;7.360;2023-02-18T08:00:23;7.60;54.70
39401;DHT22;54391;50.000;7.360;2023-02-18T08:02:50;7.60;52.70
39401;DHT22;54391;50.000;7.360;2023-02-18T08:05:17;7.70;53.80
39401;DHT22;54391;50.000;7.360;2023-02-18T08:07:44;7.70;54.00
39401;DHT22;54391;50.000;7.360;2023-02-18T08:10:11;7.80;53.00
39401;DHT22;54391;50.000;7.360;2023-02-18T08:12:38;7.70;52.20
39401;DHT22;54391;50.000;7.360;2023-02-18T08:15:05;7.80;53.20
39401;DHT22;54391;50.000;7.360;2023-02-18T08:17:33;7.80;53.80
39401;DHT22;54391;50.000;7.360;2023-02-18T08:20:00;7.80;52.40
39401;DHT22;54391;50.000;7.360;2023-02-18T08:22:28;7.90;52.20
39401;DHT22;54391;50.000;7.360;2023-02-18T08:24:56;7.80;52.90
39401;DHT22;54391;50.000;7.360;2023-02-18T08:27:23;7.80;53.20
39401;DHT22;54391;50.000;7.360;2023-02-18T08:29:50;8.10;53.60
39401;DHT22;54391;50.000;7.360;2023-02-18T08:32:17;7.90;51.50
39401;DHT22;54391;50.000;7.360;2023-02-18T08:34:46;7.80;51.20
39401;DHT22;54391;50.000;7.360;2023-02-18T08:37:13;7.80;50.40
39401;DHT22;54391;50.000;7.360;2023-02-18T08:39:40;7.80;50.80
39401;DHT22;54391;50.000;7.360;2023-02-18T08:42:07;7.80;50.70
39401;DHT22;54391;50.000;7.360;2023-02-18T08:44:34;7.90;50.50
39401;DHT22;54391;50.000;7.360;2023-02-18T08:47:01;7.90;51.70
39401;DHT22;54391;50.000;7.360;2023-02-18T08:49:29;7.80;50.70
39401;DHT22;54391;50.000;7.360;2023-02-18T08:51:58;7.80;49.60
39401;DHT22;54391;50.000;7.360;2023-02-18T08:54:25;7.70;50.50
39401;DHT22;54391;50.000;7.360;2023-02-18T08:56:53;7.80;52.10
39401;DHT22;54391;50.000;7.360;2023-02-18T08:59:20;7.80;49.30
39401;DHT22;54391;50.000;7.360;2023-02-18T09:01:48;7.80;49.60
39401;DHT22;54391;50.000;7.360;2023-02-18T09:04:15;7.70;50.10
39401;DHT22;54391;50.000;7.360;2023-02-18T09:06:42;7.80;51.00
39401;DHT22;54391;50.000;7.360;2023-02-18T09:09:12;7.80;51.30
39401;DHT22;54391;50.000;7.360;2023-02-18T09:11:39;7.80;48.60
39401;DHT22;54391;50.000;7.360;2023-02-18T09:14:06;7.90;48.60
39401;DHT22;54391;50.000;7.360;2023-02-18T09:16:33;7.90;47.30
39401;DHT22;54391;50.000;7.360;2023-02-18T09:19:00;7.90;47.00
39401;DHT22;54391;50.000;7.360;2023-02-18T09:21:27;8.10;47.00
39401;DHT22;54391;50.000;7.360;2023-02-18T09:23:55;8.10;48.10
39401;DHT22;54391;50.000;7.360;2023-02-18T09:26:23;8.00;46.90
39401;DHT22;54391;50.000;7.360;2023-02-18T09:28:52;8.00;47.10
39401;DHT22;54391;50.000;7.360;2023-02-18T09:31:20;8.10;45.80
39401;DHT22;54391;50.000;7.360;2023-02-18T09:33:48;8.10;47.70
39401;DHT22;54391;50.000;7.360;2023-02-18T09:36:15;8.10;45.80
39401;DHT22;54391;50.000;7.360;2023-02-18T09:38:43;8.10;45.60
39401;DHT22;54391;50.000;7.360;2023-02-18T09:41:13;8.10;42.80
39401;DHT22;54391;50.000;7.360;2023-02-18T09:43:42;8.00;43.10
39401;DHT22;54391;50.000;7.360;2023-02-18T09:46:13;8.00;43.50
39401;DHT22;54391;50.000;7.360;2023-02-18T09:48:43;8.10;42.70
39401;DHT22;54391;50.000;7.360;2023-02-18T09:51:10;8.10;42.10
39401;DHT22;54391;50.000;7.360;2023-02-18T09:53:39;8.10;43.10
39401;DHT22;54391;50.000;7.360;2023-02-18T09:56:09;8.10;44.10
39401;DHT22;54391;50.000;7.360;2023-02-18T09:58:37;8.00;43.40
39401;DHT22;54391;50.000;7.360;2023-02-18T10:01:10;7.90;44.20
39401;DHT22;54391;50.000;7.360;2023-02-18T10:03:39;7.90;44.70
39401;DHT22;54391;50.000;7.360;2023-02-18T10:06:09;7.90;45.60
39401;DHT22;54391;50.000;7.360;2023-02-18T10:08:38;8.00;45.20
39401;DHT22;54391;50.000;7.360;2023-02-18T10:11:08;7.90;45.50
39401;DHT22;54391;50.000;7.360;2023-02-18T10:13:39;7.90;46.50
39401;DHT22;54391;50.000;7.360;2023-02-18T10:16:08;7.80;45.70
39401;DHT22;54391;50.000;7.360;2023-02-18T10:18:38;7.90;46.90
39401;DHT22;54391;50.000;7.360;2023-02-18T10:21:07;7.90;47.40
39401;DHT22;54391;50.000;7.360;2023-02-18T10:23:36;7.90;48.00
39401;DHT22;54391;50.000;7.360;2023-02-18T10:26:09;7.90;46.30
39401;DHT22;54391;50.000;7.360;2023-02-18T10:28:37;7.90;46.30
39401;DHT22;54391;50.000;7.360;2023-02-18T10:31:05;8.00;43.60
39401;DHT22;54391;50.000;7.360;2023-02-18T10:33:38;7.90;43.60
39401;DHT22;54391;50.000;7.360;2023-02-18T10:36:12;8.00;43.40
39401;DHT22;54391;50.000;7.360;2023-02-18T10:38:45;8.00;43.00
39401;DHT22;54391;50.000;7.360;2023-02-18T10:41:20;8.10;42.20
39401;DHT22;54391;50.000;7.360;2023-02-18T10:43:50;8.10;42.40
39401;DHT22;54391;50.000;7.360;2023-02-18T10:46:21;8.10;41.60
39401;DHT22;54391;50.000;7.360;2023-02-18T10:48:55;8.10;41.90
39401;DHT22;54391;50.000;7.360;2023-02-18T10:51:28;8.30;41.30
39401;DHT22;54391;50.000;7.360;2023-02-18T10:53:56;8.30;41.10
39401;DHT22;54391;50.000;7.360;2023-02-18T10:56:34;8.30;41.10
39401;DHT22;54391;50.000;7.360;2023-02-18T10:59:04;8.30;40.70
39401;DHT22;54391;50.000;7.360;2023-02-18T11:01:32;8.30;40.80
39401;DHT22;54391;50.000;7.360;2023-02-18T11:04:14;8.30;41.50
39401;DHT22;54391;50.000;7.360;2023-02-18T11:06:42;8.20;42.30
39401;DHT22;54391;50.000;7.360;2023-02-18T11:09:20;8.30;42.90
39401;DHT22;54391;50.000;7.360;2023-02-18T11:11:50;8.20;42.60
39401;DHT22;54391;50.000;7.360;2023-02-18T11:14:32;8.30;43.50
39401;DHT22;54391;50.000;7.360;2023-02-18T11:17:06;8.30;43.10
39401;DHT22;54391;50.000;7.360;2023-02-18T11:19:36;8.40;43.00
39401;DHT22;54391;50.000;7.360;2023-02-18T11:22:10;8.30;42.50
39401;DHT22;54391;50.000;7.360;2023-02-18T11:24:40;8.20;43.60
39401;DHT22;54391;50.000;7.360;2023-02-18T11:27:15;8.20;44.60
39401;DHT22;54391;50.000;7.360;2023-02-18T11:29:44;8.30;44.20
39401;DHT22;54391;50.000;7.360;2023-02-18T11:32:14;8.30;44.20
39401;DHT22;54391;50.000;7.360;2023-02-18T11:34:43;8.30;45.00
39401;DHT22;54391;50.000;7.360;2023-02-18T11:37:11;8.30;44.60
39401;DHT22;54391;50.000;7.360;2023-02-18T11:39:40;8.40;45.40
39401;DHT22;54391;50.000;7.360;2023-02-18T11:42:12;8.40;45.30
39401;DHT22;54391;50.000;7.360;2023-02-18T11:44:40;8.40;46.10
39401;DHT22;54391;50.000;7.360;2023-02-18T11:47:18;8.40;45.60
39401;DHT22;54391;50.000;7.360;2023-02-18T11:49:59;8.40;46.40
39401;DHT22;54391;50.000;7.360;2023-02-18T11:52:29;8.30;46.20
39401;DHT22;54391;50.000;7.360;2023-02-18T11:54:59;8.30;47.10
39401;DHT22;54391;50.000;7.360;2023-02-18T11:57:27;9.10;47.60
39401;DHT22;54391;50.000;7.360;2023-02-18T11:59:54;8.10;48.50
39401;DHT22;54391;50.000;7.360;2023-02-18T12:02:27;8.20;47.60
39401;DHT22;54391;50.000;7.360;2023-02-18T12:04:57;8.20;49.70
39401;DHT22;54391;50.000;7.360;2023-02-18T12:07:28;8.20;47.70
39401;DHT22;54391;50.000;7.360;2023-02-18T12:09:58;8.30;47.50
39401;DHT22;54391;50.000;7.360;2023-02-18T12:12:31;8.60;44.50
39401;DHT22;54391;50.000;7.360;2023-02-18T12:15:02;8.70;45.60
39401;DHT22;54391;50.000;7.360;2023-02-18T12:17:33;8.70;43.70
39401;DHT22;54391;50.000;7.360;2023-02-18T12:23:11;8.50;43.40
39401;DHT22;54391;50.000;7.360;2023-02-18T12:25:42;8.60;45.50
39401;DHT22;54391;50.000;7.360;2023-02-18T12:28:21;8.50;44.80
39401;DHT22;54391;50.000;7.360;2023-02-18T12:33:40;8.50;46.40
39401;DHT22;54391;50.000;7.360;2023-02-18T12:36:12;8.50;46.20
39401;DHT22;54391;50.000;7.360;2023-02-18T12:38:54;8.40;46.60
39401;DHT22;54391;50.000;7.360;2023-02-18T12:41:28;8.40;47.00
39401;DHT22;54391;50.000;7.360;2023-02-18T12:44:00;8.40;47.60
39401;DHT22;54391;50.000;7.360;2023-02-18T12:46:37;8.50;47.50
39401;DHT22;54391;50.000;7.360;2023-02-18T12:49:10;8.40;47.80
39401;DHT22;54391;50.000;7.360;2023-02-18T12:51:43;8.50;48.30
39401;DHT22;54391;50.000;7.360;2023-02-18T12:54:22;8.40;49.90
39401;DHT22;54391;50.000;7.360;2023-02-18T12:57:00;8.30;50.80
39401;DHT22;54391;50.000;7.360;2023-02-18T12:59:35;8.40;51.40
39401;DHT22;54391;50.000;7.360;2023-02-18T13:02:07;8.30;52.60
39401;DHT22;54391;50.000;7.360;2023-02-18T13:04:43;8.30;53.90
39401;DHT22;54391;50.000;7.360;2023-02-18T13:07:34;8.40;53.40
39401;DHT22;54391;50.000;7.360;2023-02-18T13:12:52;8.20;53.00
39401;DHT22;54391;50.000;7.360;2023-02-18T13:15:21;8.20;55.60
39401;DHT22;54391;50.000;7.360;2023-02-18T13:17:48;8.30;56.10
39401;DHT22;54391;50.000;7.360;2023-02-18T13:20:17;8.30;55.80
39401;DHT22;54391;50.000;7.360;2023-02-18T13:22:46;8.10;56.50
39401;DHT22;54391;50.000;7.360;2023-02-18T13:25:15;8.10;59.30
39401;DHT22;54391;50.000;7.360;2023-02-18T13:27:43;8.10;59.30
39401;DHT22;54391;50.000;7.360;2023-02-18T13:30:20;8.10;58.50
39401;DHT22;54391;50.000;7.360;2023-02-18T13:32:51;8.00;58.80
39401;DHT22;54391;50.000;7.360;2023-02-18T13:35:26;8.10;60.30
39401;DHT22;54391;50.000;7.360;2023-02-18T13:38:07;7.90;61.00
39401;DHT22;54391;50.000;7.360;2023-02-18T13:40:38;7.90;67.40
39401;DHT22;54391;50.000;7.360;2023-02-18T13:43:19;7.80;68.00
39401;DHT22;54391;50.000;7.360;2023-02-18T13:51:58;7.70;71.40
39401;DHT22;54391;50.000;7.360;2023-02-18T13:54:27;7.80;72.30
39401;DHT22;54391;50.000;7.360;2023-02-18T13:56:57;7.80;71.80
39401;DHT22;54391;50.000;7.360;2023-02-18T13:59:27;7.70;71.90
39401;DHT22;54391;50.000;7.360;2023-02-18T14:02:06;7.80;73.00
39401;DHT22;54391;50.000;7.360;2023-02-18T14:04:50;7.80;74.20
39401;DHT22;54391;50.000;7.360;2023-02-18T14:10:03;7.70;76.50
39401;DHT22;54391;50.000;7.360;2023-02-18T14:12:37;7.60;78.40
39401;DHT22;54391;50.000;7.360;2023-02-18T14:17:51;7.50;84.40
39401;DHT22;54391;50.000;7.360;2023-02-18T14:20:43;7.50;87.10
39401;DHT22;54391;50.000;7.360;2023-02-18T14:23:16;7.50;86.30
39401;DHT22;54391;50.000;7.360;2023-02-18T14:26:04;7.50;88.70
39401;DHT22;54391;50.000;7.360;2023-02-18T14:28:36;7.50;90.10
39401;DHT22;54391;50.000;7.360;2023-02-18T14:31:04;7.50;90.50
39401;DHT22;54391;50.000;7.360;2023-02-18T14:33:33;7.50;90.80
39401;DHT22;54391;50.000;7.360;2023-02-18T14:36:05;7.50;93.00
39401;DHT22;54391;50.000;7.360;2023-02-18T14:38:37;7.50;92.40
39401;DHT22;54391;50.000;7.360;2023-02-18T14:46:50;7.40;94.30
39401;DHT22;54391;50.000;7.360;2023-02-18T14:49:24;7.40;94.60
39401;DHT22;54391;50.000;7.360;2023-02-18T14:51:55;7.50;94.70
39401;DHT22;54391;50.000;7.360;2023-02-18T14:54:23;7.50;95.20
39401;DHT22;54391;50.000;7.360;2023-02-18T14:56:54;7.50;94.70
39401;DHT22;54391;50.000;7.360;2023-02-18T14:59:22;7.50;95.60
39401;DHT22;54391;50.000;7.360;2023-02-18T15:01:54;7.40;95.60
39401;DHT22;54391;50.000;7.360;2023-02-18T15:04:22;7.40;97.00
39401;DHT22;54391;50.000;7.360;2023-02-18T15:06:57;7.40;97.60
39401;DHT22;54391;50.000;7.360;2023-02-18T15:09:24;7.40;97.60
39401;DHT22;54391;50.000;7.360;2023-02-18T15:11:52;7.40;96.60
39401;DHT22;54391;50.000;7.360;2023-02-18T15:14:21;7.40;96.90
39401;DHT22;54391;50.000;7.360;2023-02-18T15:16:50;7.40;97.40
39401;DHT22;54391;50.000;7.360;2023-02-18T15:19:19;7.40;97.20
39401;DHT22;54391;50.000;7.360;2023-02-18T15:21:47;7.50;97.10
39401;DHT22;54391;50.000;7.360;2023-02-18T15:24:18;7.40;98.10
39401;DHT22;54391;50.000;7.360;2023-02-18T15:26:47;7.50;98.20
39401;DHT22;54391;50.000;7.360;2023-02-18T15:29:17;7.40;98.10
39401;DHT22;54391;50.000;7.360;2023-02-18T15:31:45;7.50;97.90
39401;DHT22;54391;50.000;7.360;2023-02-18T15:34:23;7.50;98.10
39401;DHT22;54391;50.000;7.360;2023-02-18T15:36:52;7.40;97.90
39401;DHT22;54391;50.000;7.360;2023-02-18T15:39:19;7.40;98.30
39401;DHT22;54391;50.000;7.360;2023-02-18T15:41:50;7.40;97.90
39401;DHT22;54391;50.000;7.360;2023-02-18T15:44:19;7.40;98.20
39401;DHT22;54391;50.000;7.360;2023-02-18T15:46:46;7.30;98.20
39401;DHT22;54391;50.000;7.360;2023-02-18T15:49:13;7.30;99.00
39401;DHT22;54391;50.000;7.360;2023-02-18T15:51:42;7.30;99.40
39401;DHT22;54391;50.000;7.360;2023-02-18T15:54:11;7.30;99.90
39401;DHT22;54391;50.000;7.360;2023-02-18T15:56:41;7.30;99.90
39401;DHT22;54391;50.000;7.360;2023-02-18T15:59:09;7.30;99.90
39401;DHT22;54391;50.000;7.360;2023-02-18T16:01:40;7.30;99.90
39401;DHT22;54391;50.000;7.360;2023-02-18T16:04:11;7.30;99.90
39401;DHT22;54391;50.000;7.360;2023-02-18T16:06:44;7.40;99.90
39401;DHT22;54391;50.000;7.360;2023-02-18T16:09:12;7.30;99.90
39401;DHT22;54391;50.000;7.360;2023-02-18T16:11:41;7.30;99.90
39401;DHT22;54391;50.000;7.360;2023-02-18T16:14:20;7.30;99.90
39401;DHT22;54391;50.000;7.360;2023-02-18T16:16:55;7.30;99.90
39401;DHT22;54391;50.000;7.360;2023-02-18T16:19:25;7.30;99.90
39401;DHT22;54391;50.000;7.360;2023-02-18T16:21:54;7.20;99.90
39401;DHT22;54391;50.000;7.360;2023-02-18T16:24:22;7.20;99.90
39401;DHT22;54391;50.000;7.360;2023-02-18T16:26:50;7.30;99.90
39401;DHT22;54391;50.000;7.360;2023-02-18T16:29:20;7.30;99.90
39401;DHT22;54391;50.000;7.360;2023-02-18T16:31:47;7.20;99.90
39401;DHT22;54391;50.000;7.360;2023-02-18T16:34:14;7.20;99.90
39401;DHT22;54391;50.000;7.360;2023-02-18T16:36:42;7.20;99.90